Time;durP1;ratioP1;P1;durP2;ratioP2;P2;SDS_P1;SDS_P2;PMS_P1;PMS_P2;Temp;Humidity;BMP_temperature;BMP_pressure;BME280_temperature;BME280_humidity;BME280_pressure;Samples;Min_cycle;Max_cycle;Signal;HPM_P1;HPM_P2
2022/01/16 00:04:09;;;;;;;8.27;3.80;;;-1.20;99.90;-1.70;101374.00;;;;4996196;27;88332;-65
2022/01/16 00:06:40;;;;;;;14.67;4.80;;;-1.30;99.90;-1.70;101374.00;;;;4995120;28;88834;-65
2022/01/16 00:09:06;;;;;;;13.10;4.53;;;-1.40;99.90;-1.80;101366.00;;;;5014651;27;88604;-65
2022/01/16 00:11:32;;;;;;;5.90;3.80;;;-1.40;99.90;-1.80;101365.00;;;;5014628;27;87767;-66
2022/01/16 00:13:58;;;;;;;11.23;3.60;;;-1.40;99.90;-1.80;101368.00;;;;5011019;27;88152;-66
2022/01/16 00:16:24;;;;;;;8.03;4.47;;;-1.50;99.90;-1.80;101386.00;;;;4976071;28;100577;-65
2022/01/16 00:18:52;;;;;;;6.13;3.33;;;-1.40;99.90;-1.80;101395.00;;;;4994622;28;110629;-64
2022/01/16 00:21:21;;;;;;;7.43;4.60;;;-1.50;99.90;-1.80;101390.00;;;;5002226;27;87961;-66
2022/01/16 00:23:49;;;;;;;5.40;3.57;;;-0.70;99.90;-1.80;101356.00;;;;4997484;28;101469;-65
2022/01/16 00:26:16;;;;;;;14.00;3.73;;;-1.40;99.90;-1.80;101332.00;;;;5007756;27;87970;-65
2022/01/16 00:28:42;;;;;;;8.00;4.77;;;-1.40;99.90;-1.80;101347.00;;;;5012257;27;87677;-65
2022/01/16 00:31:08;;;;;;;4.10;3.60;;;-1.40;99.90;-1.90;101334.00;;;;4995208;27;87811;-66
2022/01/16 00:33:38;;;;;;;5.80;3.23;;;-1.40;99.90;-1.90;101338.00;;;;4994629;28;89302;-65
2022/01/16 00:36:11;;;;;;;6.07;4.07;;;-1.40;99.90;-1.90;101351.00;;;;4995285;27;88740;-66
2022/01/16 00:38:43;;;;;;;10.03;4.33;;;-1.50;99.90;-1.90;101338.00;;;;4995255;27;98675;-64
2022/01/16 00:41:09;;;;;;;10.10;3.93;;;-1.50;99.90;-1.90;101335.00;;;;4994890;27;87695;-64
2022/01/16 00:43:35;;;;;;;4.23;3.57;;;-1.60;99.90;-1.90;101332.00;;;;4995046;28;88642;-65
2022/01/16 00:46:00;;;;;;;6.27;3.87;;;-1.50;99.90;-1.90;101312.00;;;;4995166;27;118322;-64
2022/01/16 00:48:26;;;;;;;6.83;3.27;;;-1.50;99.90;-2.00;101301.00;;;;4993934;28;111521;-64
2022/01/16 00:50:52;;;;;;;13.70;4.27;;;-1.60;99.90;-2.00;101306.00;;;;4994689;27;108303;-64
2022/01/16 00:53:18;;;;;;;12.40;5.90;;;-1.60;99.90;-2.00;101324.00;;;;4994294;28;93652;-65
2022/01/16 00:55:43;;;;;;;6.80;3.83;;;-1.50;99.90;-2.00;101301.00;;;;4993442;27;116568;-65
2022/01/16 00:58:09;;;;;;;5.47;4.03;;;-0.60;99.90;-2.00;101304.00;;;;5008140;27;93382;-65
2022/01/16 01:00:35;;;;;;;12.60;4.43;;;-1.60;99.90;-2.00;101307.00;;;;5013553;27;87659;-64
2022/01/16 01:03:01;;;;;;;5.77;3.33;;;-1.70;99.90;-2.00;101318.00;;;;5014054;27;114942;-64
2022/01/16 01:05:27;;;;;;;6.97;3.70;;;-1.60;99.90;-2.00;101324.00;;;;5013592;27;88203;-64
2022/01/16 01:07:53;;;;;;;14.13;4.47;;;-1.60;99.90;-2.00;101317.00;;;;5013962;27;87703;-64
2022/01/16 01:10:24;;;;;;;8.53;4.03;;;-1.60;99.90;-2.00;101297.00;;;;5015006;27;87934;-64
2022/01/16 01:12:54;;;;;;;10.53;4.00;;;-1.60;99.90;-2.10;101284.00;;;;5013922;27;88155;-66
2022/01/16 01:15:26;;;;;;;4.50;3.30;;;-2.10;99.90;-2.10;101285.00;;;;4996965;27;87273;-65
2022/01/16 01:17:53;;;;;;;6.97;4.13;;;-1.70;99.90;-2.10;101295.00;;;;5014549;27;87700;-64
2022/01/16 01:20:21;;;;;;;8.90;3.33;;;-1.70;99.90;-2.10;101293.00;;;;5001949;27;88188;-64
2022/01/16 01:22:50;;;;;;;4.23;3.73;;;-1.80;99.90;-2.10;101291.00;;;;4993459;28;89922;-64
2022/01/16 01:25:17;;;;;;;17.43;4.83;;;-1.70;99.90;-2.20;101294.00;;;;4995446;27;88116;-64
2022/01/16 01:27:46;;;;;;;3.93;3.17;;;-1.80;99.90;-2.20;101295.00;;;;4995376;27;87699;-64
2022/01/16 01:30:15;;;;;;;9.70;3.50;;;-1.80;99.90;-2.20;101304.00;;;;4994244;27;87765;-64
2022/01/16 01:32:43;;;;;;;5.43;3.83;;;-1.80;99.90;-2.30;101301.00;;;;4994094;28;87703;-64
2022/01/16 01:35:12;;;;;;;5.17;3.33;;;-1.70;99.90;-2.30;101292.00;;;;4994453;27;87820;-66
2022/01/16 01:37:38;;;;;;;6.77;3.83;;;-2.00;99.90;-2.30;101292.00;;;;4993441;27;87896;-64
2022/01/16 01:40:09;;;;;;;3.63;2.73;;;-1.80;99.90;-2.40;101206.00;;;;4994557;28;86897;-65
2022/01/16 01:42:43;;;;;;;3.83;2.97;;;-1.30;99.90;-2.40;101179.00;;;;4998015;28;90266;-64
2022/01/16 01:53:28;;;;;;;8.77;3.70;;;-2.00;99.90;-2.60;101210.00;;;;4992727;28;88112;-64
2022/01/16 01:55:53;;;;;;;9.00;4.40;;;-2.20;99.90;-2.60;101211.00;;;;4994346;27;88118;-64
2022/01/16 01:58:20;;;;;;;7.47;4.90;;;-2.10;99.90;-2.50;101215.00;;;;4991981;28;112048;-64
2022/01/16 02:00:46;;;;;;;8.30;3.80;;;-2.10;99.90;-2.50;101240.00;;;;4993840;27;88082;-63
2022/01/16 02:03:32;;;;;;;11.73;3.77;;;-2.10;99.90;-2.50;101233.00;;;;4992435;28;116433;-64
2022/01/16 02:05:58;;;;;;;5.77;3.13;;;-2.00;99.90;-2.50;101226.00;;;;4994741;27;88953;-63
2022/01/16 02:08:24;;;;;;;5.47;2.20;;;-2.00;99.90;-2.50;101212.00;;;;4993428;27;88488;-64
2022/01/16 02:10:50;;;;;;;9.13;4.03;;;-2.10;99.90;-2.40;101215.00;;;;4993721;27;87668;-64
2022/01/16 02:13:24;;;;;;;12.07;3.83;;;-2.00;99.90;-2.40;101191.00;;;;4993017;27;119401;-64
2022/01/16 02:32:28;;;;;;;7.90;3.70;;;-2.00;99.90;-2.40;101215.00;;;;5002572;27;86831;-65
2022/01/16 02:34:48;;;;;;;5.87;3.80;;;-2.00;99.90;-2.40;101220.00;;;;5008931;27;88024;-64
2022/01/16 02:37:16;;;;;;;8.27;4.13;;;-1.90;99.90;-2.40;101202.00;;;;4993717;27;87907;-64
2022/01/16 02:39:49;;;;;;;6.27;3.63;;;-2.00;99.90;-2.50;101194.00;;;;5016264;27;88506;-64
2022/01/16 02:42:16;;;;;;;6.57;3.83;;;-2.00;99.90;-2.50;101197.00;;;;5016556;27;87772;-65
2022/01/16 02:44:47;;;;;;;9.83;3.50;;;-2.10;99.90;-2.50;101182.00;;;;5015093;27;88953;-64
2022/01/16 02:47:19;;;;;;;6.07;3.57;;;-2.00;99.90;-2.50;101183.00;;;;4998459;27;88389;-64
2022/01/16 02:49:48;;;;;;;4.77;3.20;;;-2.10;99.90;-2.50;101171.00;;;;5016783;27;87735;-64
2022/01/16 02:52:17;;;;;;;5.97;3.30;;;-2.00;99.90;-2.50;101165.00;;;;5017025;27;87837;-64
2022/01/16 02:54:46;;;;;;;8.97;4.07;;;-2.00;99.90;-2.50;101157.00;;;;5013076;27;88641;-64
2022/01/16 02:57:16;;;;;;;5.67;4.33;;;-2.00;99.90;-2.60;101165.00;;;;4996599;28;88886;-64
2022/01/16 02:59:48;;;;;;;3.93;3.50;;;-2.10;99.90;-2.60;101160.00;;;;4999821;27;87745;-65
2022/01/16 03:02:16;;;;;;;9.53;3.63;;;-1.20;99.90;-2.70;101147.00;;;;4997542;27;87832;-64
2022/01/16 03:04:41;;;;;;;8.03;4.07;;;-2.20;99.90;-2.80;101160.00;;;;5014000;27;89333;-64
2022/01/16 03:07:07;;;;;;;7.63;4.07;;;-1.90;99.90;-2.80;101151.00;;;;5015326;27;117020;-65
2022/01/16 03:10:04;;;;;;;8.17;4.27;;;-2.30;99.90;-2.90;101136.00;;;;5016720;27;87732;-64
2022/01/16 03:12:30;;;;;;;3.97;3.23;;;-2.40;99.90;-2.90;101126.00;;;;5004785;27;87780;-64
2022/01/16 03:14:55;;;;;;;5.37;3.17;;;-2.50;99.90;-3.00;101121.00;;;;5000785;27;88509;-64
2022/01/16 03:21:52;;;;;;;8.10;4.50;;;-2.40;99.90;-2.90;101106.00;;;;4999985;27;117788;-64
2022/01/16 03:23:13;;;;;;;15.67;4.90;;;-2.50;99.90;-2.90;101081.00;;;;4996401;28;87336;-64
2022/01/16 03:25:38;;;;;;;6.80;3.87;;;-2.50;99.90;-2.90;101080.00;;;;4996755;27;88777;-64
2022/01/16 03:28:04;;;;;;;8.63;4.87;;;-2.40;99.90;-2.90;101074.00;;;;4994817;28;117024;-64
2022/01/16 03:30:30;;;;;;;12.87;4.90;;;-2.50;99.90;-2.80;101078.00;;;;4997060;27;88714;-64
2022/01/16 03:32:56;;;;;;;6.20;4.17;;;-2.40;99.90;-2.80;101082.00;;;;4996000;28;87875;-64
2022/01/16 03:35:23;;;;;;;10.27;5.67;;;-2.40;99.90;-2.80;101074.00;;;;4995367;27;118167;-64
2022/01/16 03:37:49;;;;;;;6.63;4.47;;;-2.50;99.90;-2.80;101065.00;;;;4994983;28;106317;-65
2022/01/16 03:40:15;;;;;;;5.87;4.53;;;-2.40;99.90;-2.70;101062.00;;;;5004760;27;87826;-65
2022/01/16 03:42:41;;;;;;;9.80;5.30;;;-1.80;99.90;-2.70;101053.00;;;;5015867;27;87799;-65
2022/01/16 03:45:09;;;;;;;17.07;4.70;;;-2.30;99.90;-2.70;101066.00;;;;5009497;27;87947;-65
2022/01/16 03:47:36;;;;;;;11.97;5.13;;;-2.30;99.90;-2.60;101052.00;;;;4995978;28;88067;-65
2022/01/16 03:50:04;;;;;;;13.93;5.40;;;-2.30;99.90;-2.60;101046.00;;;;4999884;27;111609;-64
2022/01/16 03:52:30;;;;;;;7.57;4.93;;;-2.20;99.90;-2.60;101044.00;;;;5015794;27;87664;-64
2022/01/16 03:54:55;;;;;;;6.27;4.13;;;-2.10;99.90;-2.60;101027.00;;;;5015478;27;91211;-64
2022/01/16 03:57:21;;;;;;;12.53;4.77;;;-2.30;99.90;-2.50;101037.00;;;;5014506;27;117904;-64
2022/01/16 03:59:47;;;;;;;8.47;5.10;;;-2.20;99.90;-2.50;101022.00;;;;5015233;27;110299;-65
2022/01/16 04:02:13;;;;;;;6.30;5.07;;;-2.10;99.90;-2.50;101024.00;;;;5014342;27;109562;-64
2022/01/16 04:04:39;;;;;;;7.10;5.20;;;-2.10;99.90;-2.50;101028.00;;;;5014408;27;88310;-64
2022/01/16 04:07:07;;;;;;;7.50;5.07;;;-2.20;99.90;-2.50;101025.00;;;;5014647;27;117579;-64
2022/01/16 04:09:33;;;;;;;5.97;4.57;;;-2.10;99.90;-2.50;101018.00;;;;5015570;27;87717;-64
2022/01/16 04:11:59;;;;;;;12.13;4.97;;;-2.10;99.90;-2.50;101016.00;;;;5015267;27;87187;-64
2022/01/16 04:17:19;;;;;;;3.87;3.50;;;-2.10;99.90;-2.50;101015.00;;;;4997797;27;87953;-64
2022/01/16 04:19:45;;;;;;;8.47;5.07;;;-2.10;99.90;-2.50;101013.00;;;;5014500;27;88676;-64
2022/01/16 04:22:12;;;;;;;9.00;4.63;;;-2.00;99.90;-2.50;100997.00;;;;5014178;27;96857;-64
2022/01/16 04:24:39;;;;;;;11.20;5.20;;;-2.00;99.90;-2.50;101005.00;;;;5015429;27;89200;-65
2022/01/16 04:27:06;;;;;;;6.23;3.93;;;-2.10;99.90;-2.50;101005.00;;;;4996331;27;87995;-64
2022/01/16 04:29:32;;;;;;;6.50;4.13;;;-2.10;99.90;-2.60;101005.00;;;;5014705;27;99908;-64
2022/01/16 04:31:58;;;;;;;6.43;4.03;;;-2.10;99.90;-2.60;101005.00;;;;5014792;27;99931;-64
2022/01/16 04:34:24;;;;;;;5.80;3.67;;;-2.20;99.90;-2.60;101004.00;;;;5013301;27;117205;-64
2022/01/16 04:36:50;;;;;;;8.93;4.67;;;-2.20;99.90;-2.60;100999.00;;;;5014147;27;105197;-63
2022/01/16 04:39:19;;;;;;;4.23;3.33;;;-2.20;99.90;-2.60;100987.00;;;;5014460;27;111639;-63
2022/01/16 04:44:30;;;;;;;5.10;4.30;;;-2.30;99.90;-2.60;100984.00;;;;5013304;27;88651;-64
2022/01/16 04:46:58;;;;;;;9.70;4.50;;;-2.30;99.90;-2.60;100986.00;;;;4994625;28;91692;-64
2022/01/16 04:49:24;;;;;;;6.90;4.70;;;-2.20;99.90;-2.70;100984.00;;;;4995518;27;88058;-64
2022/01/16 04:51:50;;;;;;;6.83;3.43;;;-2.20;99.90;-2.70;100988.00;;;;4994725;28;88255;-63
2022/01/16 04:54:16;;;;;;;11.43;4.40;;;-2.30;99.90;-2.80;100985.00;;;;4995065;28;97936;-63
2022/01/16 04:56:42;;;;;;;3.93;3.53;;;-2.40;99.90;-2.80;100969.00;;;;5014130;27;87819;-64
2022/01/16 04:59:08;;;;;;;7.07;3.50;;;-2.30;99.90;-2.80;100963.00;;;;5014955;27;87749;-64
2022/01/16 05:01:33;;;;;;;7.70;3.83;;;-2.40;99.90;-2.80;100960.00;;;;5012647;27;107762;-64
2022/01/16 05:03:59;;;;;;;7.33;4.37;;;-2.40;99.90;-2.90;100953.00;;;;5012436;27;118300;-64
2022/01/16 05:06:25;;;;;;;5.53;4.33;;;-2.50;99.90;-2.90;100961.00;;;;5014372;27;89557;-64
2022/01/16 05:08:51;;;;;;;5.70;3.67;;;-2.40;99.90;-2.90;100964.00;;;;5014229;27;88693;-64
2022/01/16 05:11:22;;;;;;;10.97;4.53;;;-2.50;99.90;-3.00;100953.00;;;;4994068;27;109984;-64
2022/01/16 05:18:58;;;;;;;8.13;4.20;;;-2.50;99.90;-3.10;100951.00;;;;5010542;27;87793;-64
2022/01/16 05:21:24;;;;;;;9.80;3.93;;;-2.60;99.90;-3.10;100947.00;;;;5014079;27;87950;-64
2022/01/16 05:23:50;;;;;;;7.93;4.70;;;-2.60;99.90;-3.10;100935.00;;;;5013981;27;102284;-64
2022/01/16 05:26:19;;;;;;;7.27;4.77;;;-2.70;99.90;-3.10;100935.00;;;;5014517;27;87832;-64
2022/01/16 05:28:45;;;;;;;9.40;4.23;;;-2.60;99.90;-3.10;100932.00;;;;5014346;27;88458;-63
2022/01/16 05:31:11;;;;;;;4.93;4.13;;;-2.70;99.90;-3.10;100932.00;;;;5014016;27;95195;-64
2022/01/16 05:33:37;;;;;;;5.53;4.70;;;-2.70;99.90;-3.10;100925.00;;;;5013388;27;99322;-64
2022/01/16 05:36:03;;;;;;;5.50;4.50;;;-2.70;99.90;-3.10;100928.00;;;;5011716;27;116591;-64
2022/01/16 05:38:29;;;;;;;7.47;4.50;;;-2.70;99.90;-3.10;100931.00;;;;4995521;27;87913;-65
2022/01/16 05:40:55;;;;;;;8.30;5.03;;;-2.70;99.90;-3.20;100919.00;;;;4993150;28;108680;-65
2022/01/16 05:43:21;;;;;;;7.87;4.73;;;-2.70;99.90;-3.20;100925.00;;;;4993177;28;116789;-65
2022/01/16 05:45:46;;;;;;;6.70;4.23;;;-2.70;99.90;-3.20;100908.00;;;;4994803;27;116582;-65
2022/01/16 05:48:12;;;;;;;8.07;3.83;;;-2.70;99.90;-3.20;100922.00;;;;4993127;27;111672;-64
2022/01/16 05:50:38;;;;;;;5.87;4.23;;;-2.70;99.90;-3.20;100911.00;;;;5004051;27;108988;-64
2022/01/16 05:53:03;;;;;;;7.10;4.10;;;-2.70;99.90;-3.20;100912.00;;;;5013031;27;103355;-64
2022/01/16 05:55:36;;;;;;;4.90;4.47;;;-2.70;99.90;-3.20;100922.00;;;;5013194;27;114368;-63
2022/01/16 05:58:04;;;;;;;9.93;4.87;;;-2.70;99.90;-3.10;100902.00;;;;5013438;27;88648;-64
2022/01/16 06:00:30;;;;;;;6.60;4.77;;;-2.60;99.90;-3.10;100904.00;;;;5011810;27;91711;-65
2022/01/16 06:02:56;;;;;;;8.03;5.33;;;-2.70;99.90;-3.20;100914.00;;;;5014337;27;87821;-64
2022/01/16 06:05:22;;;;;;;11.60;7.53;;;-2.70;99.90;-3.20;100902.00;;;;5009667;27;104494;-65
2022/01/16 06:07:54;;;;;;;8.97;6.23;;;-2.80;99.90;-3.30;100905.00;;;;4992480;27;95006;-64
2022/01/16 06:10:20;;;;;;;8.83;5.43;;;-2.00;99.90;-3.30;100909.00;;;;4994344;27;87766;-64
2022/01/16 06:12:46;;;;;;;12.40;5.73;;;-2.80;99.90;-3.30;100908.00;;;;4994499;27;117979;-65
2022/01/16 06:15:12;;;;;;;9.13;5.23;;;-2.90;99.90;-3.30;100909.00;;;;4997332;27;104065;-64
2022/01/16 06:17:38;;;;;;;9.00;5.53;;;-2.90;99.90;-3.30;100904.00;;;;4996123;28;110469;-64
2022/01/16 06:20:05;;;;;;;5.57;4.40;;;-2.80;99.90;-3.30;100889.00;;;;4997901;27;88208;-65
2022/01/16 06:22:30;;;;;;;8.63;5.77;;;-3.30;99.90;-3.30;100884.00;;;;4996087;28;91300;-64
2022/01/16 06:24:56;;;;;;;6.10;5.10;;;-2.80;99.90;-3.30;100887.00;;;;4996199;27;118744;-65
2022/01/16 06:27:22;;;;;;;15.47;4.87;;;-2.90;99.90;-3.20;100899.00;;;;4995678;28;110457;-64
2022/01/16 06:29:47;;;;;;;6.43;4.47;;;-2.80;99.90;-3.20;100905.00;;;;4997900;27;108629;-64
2022/01/16 06:32:13;;;;;;;11.63;6.23;;;-2.70;99.90;-3.20;100896.00;;;;5006190;27;119138;-65
2022/01/16 06:34:39;;;;;;;14.57;5.13;;;-2.60;99.90;-3.20;100908.00;;;;4995969;28;114342;-65
2022/01/16 06:37:04;;;;;;;8.30;5.70;;;-2.80;99.90;-3.20;100900.00;;;;5010794;27;101492;-64
2022/01/16 06:39:30;;;;;;;10.10;5.83;;;-2.80;99.90;-3.20;100905.00;;;;5005928;27;101146;-65
2022/01/16 06:41:56;;;;;;;9.90;6.57;;;-2.70;99.90;-3.10;100902.00;;;;4996829;28;88336;-65
2022/01/16 06:44:23;;;;;;;6.10;5.50;;;-2.60;99.90;-3.10;100899.00;;;;4996811;27;88751;-64
2022/01/16 06:46:49;;;;;;;8.70;5.63;;;-2.70;99.90;-3.10;100911.00;;;;5016140;27;88928;-64
2022/01/16 06:49:15;;;;;;;15.13;6.47;;;-2.70;99.90;-3.10;100910.00;;;;5016675;27;109161;-65
2022/01/16 06:51:41;;;;;;;8.97;6.17;;;-2.60;99.90;-3.10;100926.00;;;;5014304;27;105406;-66
2022/01/16 06:54:06;;;;;;;17.40;7.03;;;-2.60;99.90;-3.00;100926.00;;;;5016774;27;109836;-64
2022/01/16 06:56:32;;;;;;;13.33;7.27;;;-2.20;99.90;-3.00;100943.00;;;;4997543;27;95380;-64
2022/01/16 06:58:59;;;;;;;10.57;6.97;;;-2.60;99.90;-3.00;100927.00;;;;4996548;28;87723;-65
2022/01/16 07:01:26;;;;;;;14.17;7.40;;;-2.50;99.90;-2.90;100937.00;;;;5010807;27;117400;-64
2022/01/16 07:03:54;;;;;;;11.70;7.07;;;-2.60;99.90;-2.90;100925.00;;;;4997650;27;87862;-65
2022/01/16 07:06:20;;;;;;;12.13;7.27;;;-2.40;99.90;-2.90;100921.00;;;;4994040;28;87446;-63
2022/01/16 07:08:46;;;;;;;9.97;6.03;;;-2.50;99.90;-2.90;100936.00;;;;5004317;27;95814;-65
2022/01/16 07:11:12;;;;;;;11.97;7.23;;;-2.50;99.90;-2.90;100923.00;;;;5010477;27;97967;-63
2022/01/16 07:13:38;;;;;;;12.20;6.50;;;-2.50;99.90;-2.80;100945.00;;;;5005465;27;119347;-64
2022/01/16 07:16:05;;;;;;;10.87;6.67;;;-2.50;99.90;-2.80;100935.00;;;;5009214;27;87820;-64
2022/01/16 07:18:31;;;;;;;7.87;5.93;;;-2.40;99.90;-2.80;100925.00;;;;5013716;27;87981;-64
2022/01/16 07:20:57;;;;;;;12.30;6.93;;;-2.40;99.90;-2.80;100928.00;;;;4996295;27;97121;-64
2022/01/16 07:23:23;;;;;;;11.93;6.93;;;-2.30;99.90;-2.80;100923.00;;;;5011696;27;88223;-64
2022/01/16 07:25:49;;;;;;;15.73;6.83;;;-2.40;99.90;-2.70;100930.00;;;;5009515;27;87871;-64
2022/01/16 07:28:15;;;;;;;15.13;8.17;;;-2.20;99.90;-2.60;100937.00;;;;5014051;27;86965;-64
2022/01/16 07:30:41;;;;;;;16.07;9.47;;;-2.20;99.90;-2.50;100936.00;;;;5012448;27;88902;-64
2022/01/16 07:33:08;;;;;;;18.17;11.10;;;-2.10;99.90;-2.30;100945.00;;;;5012954;27;87904;-64
2022/01/16 07:35:36;;;;;;;19.27;11.30;;;-2.00;99.90;-2.20;100948.00;;;;5007400;27;88691;-64
2022/01/16 07:38:04;;;;;;;16.53;10.20;;;-1.80;99.90;-2.00;100955.00;;;;5010067;27;88271;-64
2022/01/16 07:40:30;;;;;;;20.00;12.47;;;-1.80;99.90;-1.90;100954.00;;;;5011479;27;89174;-64
2022/01/16 07:42:57;;;;;;;15.33;10.00;;;-1.50;99.90;-1.70;100943.00;;;;5011909;27;88608;-64
2022/01/16 07:45:23;;;;;;;19.47;9.93;;;-1.40;99.90;-1.60;100942.00;;;;5011889;27;87893;-64
2022/01/16 07:47:49;;;;;;;12.30;8.80;;;-1.30;99.90;-1.60;100951.00;;;;5004939;27;109347;-63
2022/01/16 07:50:16;;;;;;;16.73;9.37;;;-1.20;99.90;-1.50;100953.00;;;;5011203;27;88781;-64
2022/01/16 07:52:42;;;;;;;18.03;8.27;;;-1.10;99.90;-1.40;100966.00;;;;5006477;27;88494;-64
2022/01/16 07:55:09;;;;;;;13.60;7.60;;;-1.10;99.90;-1.30;100972.00;;;;5011560;27;110713;-64
2022/01/16 07:57:34;;;;;;;13.50;8.47;;;-0.90;99.90;-1.20;100962.00;;;;5012553;27;88201;-65
2022/01/16 08:00:00;;;;;;;15.83;8.33;;;-0.90;99.90;-1.20;100970.00;;;;4990610;27;118789;-63
2022/01/16 08:02:26;;;;;;;13.83;7.83;;;-0.90;99.90;-1.10;100963.00;;;;5011345;27;103950;-63
2022/01/16 08:04:52;;;;;;;13.37;7.23;;;-0.80;99.90;-1.10;100964.00;;;;5006632;27;109434;-64
2022/01/16 08:07:17;;;;;;;13.63;7.57;;;0.20;99.90;-1.00;100970.00;;;;5007502;27;109512;-64
2022/01/16 08:09:43;;;;;;;11.67;7.40;;;-0.60;99.90;-1.00;100968.00;;;;5010725;27;117751;-64
2022/01/16 08:12:11;;;;;;;11.37;7.10;;;-0.70;99.90;-0.90;100962.00;;;;5009625;27;88893;-64
2022/01/16 08:14:37;;;;;;;10.83;7.77;;;-0.50;99.90;-0.90;100978.00;;;;5011684;27;88160;-64
2022/01/16 08:17:03;;;;;;;14.67;9.03;;;-0.50;99.90;-0.80;100965.00;;;;5011493;27;87033;-65
2022/01/16 08:19:29;;;;;;;16.67;9.30;;;-0.50;99.90;-0.70;100973.00;;;;5008978;27;105112;-65
2022/01/16 08:21:56;;;;;;;17.27;8.17;;;-0.30;99.90;-0.50;100967.00;;;;5009041;27;87943;-65
2022/01/16 08:24:22;;;;;;;18.30;8.13;;;-0.20;99.90;-0.40;100955.00;;;;5010185;27;89589;-65
2022/01/16 08:26:48;;;;;;;22.00;8.23;;;0.90;99.90;-0.30;100956.00;;;;5010820;27;96788;-64
2022/01/16 08:29:14;;;;;;;13.17;9.00;;;0.10;99.90;-0.20;100942.00;;;;5011577;27;88051;-64
2022/01/16 08:31:40;;;;;;;18.00;8.73;;;0.10;99.90;-0.20;100950.00;;;;5010496;27;88540;-65
2022/01/16 08:34:06;;;;;;;13.67;8.10;;;0.20;99.90;-0.10;100941.00;;;;5011510;27;87923;-64
2022/01/16 08:36:33;;;;;;;12.77;7.53;;;0.20;99.90;-0.10;100944.00;;;;5007868;27;108434;-66
2022/01/16 08:38:59;;;;;;;12.80;7.47;;;0.20;99.90;0.00;100947.00;;;;5007354;27;88508;-66
2022/01/16 08:41:25;;;;;;;10.37;7.63;;;0.30;99.90;0.10;100948.00;;;;5010486;27;93440;-64
2022/01/16 08:43:52;;;;;;;13.87;7.83;;;0.40;99.90;0.20;100944.00;;;;5007111;27;87758;-65
2022/01/16 08:46:20;;;;;;;13.33;7.20;;;0.40;99.90;0.40;100935.00;;;;5011765;27;87800;-67
2022/01/16 08:48:47;;;;;;;11.67;7.83;;;0.60;99.90;0.50;100945.00;;;;5010679;27;89608;-65
2022/01/16 08:51:13;;;;;;;12.83;7.90;;;0.70;99.90;0.70;100952.00;;;;5005344;27;104970;-69
2022/01/16 08:53:40;;;;;;;15.33;7.53;;;1.90;99.90;0.80;100950.00;;;;5011607;27;87646;-67
2022/01/16 08:56:06;;;;;;;17.20;8.70;;;1.10;99.90;0.90;100956.00;;;;5007487;27;99062;-63
2022/01/16 08:58:32;;;;;;;11.73;7.93;;;2.10;99.90;0.90;100944.00;;;;5011642;27;87660;-65
2022/01/16 09:00:57;;;;;;;10.40;7.10;;;1.90;99.90;1.10;100944.00;;;;5010420;27;89168;-65
2022/01/16 09:03:23;;;;;;;10.73;7.63;;;1.20;99.90;1.20;100936.00;;;;5010050;27;109537;-64
2022/01/16 09:05:50;;;;;;;15.50;8.13;;;1.40;99.90;1.30;100935.00;;;;5007683;27;88797;-64
2022/01/16 09:08:18;;;;;;;14.07;7.37;;;1.50;99.90;1.40;100938.00;;;;5007448;27;89064;-63
2022/01/16 09:10:44;;;;;;;12.50;8.30;;;2.50;99.90;1.50;100956.00;;;;5011537;27;88658;-64
2022/01/16 09:13:12;;;;;;;12.97;8.40;;;2.10;99.90;1.70;100961.00;;;;5009551;27;88642;-65
2022/01/16 09:15:47;;;;;;;16.30;9.13;;;2.30;99.90;2.00;100977.00;;;;4992858;27;87876;-64
2022/01/16 09:18:14;;;;;;;17.10;9.00;;;2.20;99.90;2.30;100966.00;;;;5011009;27;89267;-65
2022/01/16 09:20:41;;;;;;;11.03;7.17;;;2.50;99.90;2.60;100962.00;;;;5010557;27;89489;-64
2022/01/16 09:23:08;;;;;;;11.00;7.20;;;2.70;99.90;2.90;100976.00;;;;5011059;27;87962;-64
2022/01/16 09:25:33;;;;;;;13.10;7.87;;;3.00;99.90;3.10;100971.00;;;;4985982;27;97506;-66
2022/01/16 09:27:59;;;;;;;12.67;7.10;;;3.20;99.90;3.20;100970.00;;;;5011024;27;88438;-66
2022/01/16 09:30:26;;;;;;;14.80;7.57;;;3.50;99.90;3.40;100977.00;;;;5011031;27;116951;-64
2022/01/16 09:32:52;;;;;;;12.20;6.87;;;3.50;99.90;3.40;100976.00;;;;5011045;27;87760;-64
2022/01/16 09:35:18;;;;;;;15.27;7.03;;;3.70;99.90;3.40;100969.00;;;;5010047;27;88553;-65
2022/01/16 09:37:44;;;;;;;15.60;7.53;;;4.40;99.90;3.40;100976.00;;;;4997712;27;104825;-65
2022/01/16 09:40:14;;;;;;;14.37;7.47;;;3.70;99.90;3.30;100983.00;;;;5002870;27;88141;-66
2022/01/16 09:42:41;;;;;;;15.07;7.33;;;3.60;99.90;3.20;100974.00;;;;4989483;27;87839;-65
2022/01/16 09:45:11;;;;;;;13.20;7.13;;;3.90;99.90;3.20;100977.00;;;;5010593;27;87502;-65
2022/01/16 09:47:37;;;;;;;12.37;6.93;;;3.50;99.90;3.20;100966.00;;;;5005216;27;88297;-65
2022/01/16 09:50:06;;;;;;;11.83;6.83;;;3.40;99.90;3.20;100980.00;;;;5012519;27;95798;-68
2022/01/16 09:52:42;;;;;;;9.27;5.93;;;3.50;99.90;3.20;100967.00;;;;4995661;27;88799;-67
2022/01/16 09:55:08;;;;;;;14.93;7.73;;;3.50;99.90;3.20;100960.00;;;;5008694;27;86752;-67
2022/01/16 09:57:34;;;;;;;11.93;6.70;;;3.50;99.90;3.20;100954.00;;;;5008492;27;88676;-67
2022/01/16 10:00:03;;;;;;;12.57;7.83;;;4.20;99.90;3.20;100966.00;;;;5009465;27;87924;-67
2022/01/16 10:02:29;;;;;;;9.23;6.73;;;3.40;99.90;3.00;100957.00;;;;4976830;27;88797;-67
2022/01/16 10:04:54;;;;;;;11.87;7.30;;;3.70;99.90;3.00;100942.00;;;;5013108;27;108363;-68
2022/01/16 10:07:20;;;;;;;11.00;7.03;;;3.90;99.90;3.00;100936.00;;;;5006682;27;117080;-67
2022/01/16 10:10:09;;;;;;;11.33;6.43;;;4.10;99.90;3.10;100931.00;;;;5014074;27;88436;-67
2022/01/16 10:12:48;;;;;;;10.37;6.17;;;3.40;99.90;3.20;100917.00;;;;4994022;27;87875;-67
2022/01/16 10:15:28;;;;;;;9.43;6.60;;;3.50;99.90;3.40;100909.00;;;;5014099;27;87602;-68
2022/01/16 10:17:56;;;;;;;11.77;6.33;;;3.50;99.90;3.60;100909.00;;;;4995507;27;91148;-68
2022/01/16 10:20:24;;;;;;;9.23;5.60;;;3.80;99.90;3.70;100904.00;;;;5003852;27;88385;-68
2022/01/16 10:22:58;;;;;;;11.80;5.60;;;3.90;99.90;3.80;100921.00;;;;5012900;27;88109;-69
2022/01/16 10:25:47;;;;;;;6.47;5.50;;;4.00;99.90;3.80;100915.00;;;;5012325;27;87960;-68
2022/01/16 10:28:23;;;;;;;8.63;5.03;;;4.00;99.90;3.80;100914.00;;;;5007512;27;90120;-68
2022/01/16 10:30:58;;;;;;;7.83;5.53;;;4.00;99.90;3.90;100919.00;;;;4994836;27;89371;-68
2022/01/16 10:33:28;;;;;;;8.90;5.80;;;4.10;99.90;4.00;100912.00;;;;5011860;27;110895;-69
2022/01/16 10:35:56;;;;;;;9.77;6.60;;;4.20;99.90;4.00;100918.00;;;;4993225;27;87841;-69
2022/01/16 10:38:27;;;;;;;11.77;6.33;;;4.20;99.90;4.00;100899.00;;;;4991496;27;87895;-69
2022/01/16 10:40:56;;;;;;;10.67;6.77;;;4.20;99.90;4.10;100897.00;;;;5006835;27;87790;-68
2022/01/16 10:43:41;;;;;;;8.13;4.97;;;4.20;99.90;4.30;100895.00;;;;5012702;27;87554;-68
2022/01/16 10:46:10;;;;;;;9.80;6.07;;;4.40;99.90;4.40;100894.00;;;;4990709;27;87196;-68
2022/01/16 10:48:37;;;;;;;11.10;6.97;;;4.50;99.90;4.40;100898.00;;;;5013719;27;88931;-68
2022/01/16 10:51:03;;;;;;;9.20;6.17;;;4.50;99.90;4.50;100898.00;;;;5014082;27;88227;-68
2022/01/16 10:53:32;;;;;;;12.13;6.07;;;4.60;99.90;4.50;100903.00;;;;5013038;27;89078;-68
2022/01/16 10:56:03;;;;;;;9.70;6.30;;;4.70;99.90;4.40;100888.00;;;;5013132;27;87942;-68
2022/01/16 10:58:43;;;;;;;8.37;5.73;;;4.70;99.90;4.30;100900.00;;;;4991386;27;88176;-68
2022/01/16 11:01:16;;;;;;;10.13;5.93;;;4.50;99.90;4.20;100892.00;;;;5011544;27;88673;-68
2022/01/16 11:03:48;;;;;;;12.27;6.30;;;4.40;99.90;4.00;100894.00;;;;4987200;27;87973;-68
2022/01/16 11:06:16;;;;;;;10.63;5.87;;;4.30;99.90;3.90;100907.00;;;;5013642;27;87761;-67
2022/01/16 11:08:51;;;;;;;8.67;6.30;;;4.20;99.90;3.70;100914.00;;;;4989747;27;87880;-68
2022/01/16 11:11:19;;;;;;;11.17;6.83;;;4.40;99.90;3.70;100917.00;;;;4992098;27;87927;-69
2022/01/16 11:13:45;;;;;;;16.60;8.63;;;3.80;99.90;3.60;100922.00;;;;4993608;27;87704;-68
2022/01/16 11:16:11;;;;;;;12.70;6.47;;;3.80;99.90;3.50;100922.00;;;;4986320;27;108369;-67
2022/01/16 11:18:40;;;;;;;12.10;5.83;;;3.80;99.90;3.40;100921.00;;;;5012397;27;89888;-68
2022/01/16 11:21:16;;;;;;;8.40;5.03;;;3.40;99.90;3.40;100925.00;;;;5009785;27;90105;-69
2022/01/16 11:24:11;;;;;;;10.53;5.83;;;3.80;99.90;3.40;100932.00;;;;4987109;27;87926;-69
2022/01/16 11:26:35;;;;;;;7.90;5.60;;;3.60;99.90;3.30;100929.00;;;;4997062;27;88331;-68
2022/01/16 11:29:01;;;;;;;8.03;5.37;;;3.60;99.90;3.20;100928.00;;;;4993574;27;117689;-68